sensor_id;sensor_type;location;lat;lon;timestamp;P1;durP1;ratioP1;P2;durP2;ratioP2
21677;SDS011;11000;50.360;7.582;2024-01-15T00:00:05;32.00;;;11.33;;
21677;SDS011;11000;50.360;7.582;2024-01-15T00:02:26;26.27;;;10.47;;
21677;SDS011;11000;50.360;7.582;2024-01-15T00:04:46;26.03;;;10.90;;
21677;SDS011;11000;50.360;7.582;2024-01-15T00:07:07;26.80;;;11.53;;
21677;SDS011;11000;50.360;7.582;2024-01-15T00:09:28;23.97;;;10.90;;
21677;SDS011;11000;50.360;7.582;2024-01-15T00:11:48;27.33;;;11.37;;
21677;SDS011;11000;50.360;7.582;2024-01-15T00:14:09;25.63;;;11.37;;
21677;SDS011;11000;50.360;7.582;2024-01-15T00:16:29;26.83;;;11.30;;
21677;SDS011;11000;50.360;7.582;2024-01-15T00:18:50;30.57;;;11.57;;
21677;SDS011;11000;50.360;7.582;2024-01-15T00:21:10;30.03;;;11.87;;
21677;SDS011;11000;50.360;7.582;2024-01-15T00:23:31;27.17;;;10.67;;
21677;SDS011;11000;50.360;7.582;2024-01-15T00:25:51;26.37;;;11.23;;
21677;SDS011;11000;50.360;7.582;2024-01-15T00:28:12;31.00;;;11.73;;
21677;SDS011;11000;50.360;7.582;2024-01-15T00:30:32;27.77;;;11.87;;
21677;SDS011;11000;50.360;7.582;2024-01-15T00:32:52;33.50;;;12.43;;
21677;SDS011;11000;50.360;7.582;2024-01-15T00:35:13;26.83;;;10.57;;
21677;SDS011;11000;50.360;7.582;2024-01-15T00:37:34;28.33;;;11.50;;
21677;SDS011;11000;50.360;7.582;2024-01-15T00:39:54;32.97;;;12.40;;
21677;SDS011;11000;50.360;7.582;2024-01-15T00:42:14;29.23;;;11.23;;
21677;SDS011;11000;50.360;7.582;2024-01-15T00:44:35;31.47;;;12.07;;
21677;SDS011;11000;50.360;7.582;2024-01-15T00:46:55;29.10;;;11.37;;
21677;SDS011;11000;50.360;7.582;2024-01-15T00:49:16;26.93;;;11.57;;
21677;SDS011;11000;50.360;7.582;2024-01-15T00:51:37;32.27;;;11.17;;
21677;SDS011;11000;50.360;7.582;2024-01-15T00:53:57;28.30;;;10.67;;
21677;SDS011;11000;50.360;7.582;2024-01-15T00:56:17;30.03;;;11.40;;
21677;SDS011;11000;50.360;7.582;2024-01-15T00:58:38;28.17;;;11.33;;
21677;SDS011;11000;50.360;7.582;2024-01-15T01:00:58;25.50;;;10.90;;
21677;SDS011;11000;50.360;7.582;2024-01-15T01:03:19;25.80;;;10.87;;
21677;SDS011;11000;50.360;7.582;2024-01-15T01:05:39;32.57;;;11.87;;
21677;SDS011;11000;50.360;7.582;2024-01-15T01:08:00;33.73;;;11.97;;
21677;SDS011;11000;50.360;7.582;2024-01-15T01:10:21;25.90;;;11.10;;
21677;SDS011;11000;50.360;7.582;2024-01-15T01:12:41;27.83;;;11.00;;
21677;SDS011;11000;50.360;7.582;2024-01-15T01:15:02;27.30;;;10.73;;
21677;SDS011;11000;50.360;7.582;2024-01-15T01:17:22;30.43;;;11.10;;
21677;SDS011;11000;50.360;7.582;2024-01-15T01:19:43;31.17;;;11.20;;
21677;SDS011;11000;50.360;7.582;2024-01-15T01:22:03;25.33;;;10.53;;
21677;SDS011;11000;50.360;7.582;2024-01-15T01:24:24;30.73;;;10.87;;
21677;SDS011;11000;50.360;7.582;2024-01-15T01:26:44;29.87;;;11.00;;
21677;SDS011;11000;50.360;7.582;2024-01-15T01:29:06;23.43;;;11.00;;
21677;SDS011;11000;50.360;7.582;2024-01-15T01:31:27;30.07;;;11.17;;
21677;SDS011;11000;50.360;7.582;2024-01-15T01:33:47;29.70;;;10.20;;
21677;SDS011;11000;50.360;7.582;2024-01-15T01:36:08;29.80;;;10.97;;
21677;SDS011;11000;50.360;7.582;2024-01-15T01:38:29;31.03;;;11.70;;
21677;SDS011;11000;50.360;7.582;2024-01-15T01:40:50;24.53;;;9.87;;
21677;SDS011;11000;50.360;7.582;2024-01-15T01:43:10;26.27;;;11.57;;
21677;SDS011;11000;50.360;7.582;2024-01-15T01:45:31;24.83;;;10.43;;
21677;SDS011;11000;50.360;7.582;2024-01-15T01:47:51;28.33;;;9.63;;
21677;SDS011;11000;50.360;7.582;2024-01-15T01:50:12;27.03;;;10.97;;
21677;SDS011;11000;50.360;7.582;2024-01-15T01:52:33;27.43;;;10.70;;
21677;SDS011;11000;50.360;7.582;2024-01-15T01:54:55;28.87;;;11.37;;
21677;SDS011;11000;50.360;7.582;2024-01-15T01:57:16;30.57;;;11.93;;
21677;SDS011;11000;50.360;7.582;2024-01-15T01:59:39;30.67;;;10.97;;
21677;SDS011;11000;50.360;7.582;2024-01-15T02:02:00;28.40;;;11.43;;
21677;SDS011;11000;50.360;7.582;2024-01-15T02:04:24;24.80;;;11.33;;
21677;SDS011;11000;50.360;7.582;2024-01-15T02:06:45;30.87;;;12.47;;
21677;SDS011;11000;50.360;7.582;2024-01-15T02:09:05;26.27;;;10.53;;
21677;SDS011;11000;50.360;7.582;2024-01-15T02:11:27;27.73;;;11.03;;
21677;SDS011;11000;50.360;7.582;2024-01-15T02:13:48;30.63;;;11.80;;
21677;SDS011;11000;50.360;7.582;2024-01-15T02:16:08;32.47;;;12.87;;
21677;SDS011;11000;50.360;7.582;2024-01-15T02:18:29;26.27;;;10.53;;
21677;SDS011;11000;50.360;7.582;2024-01-15T02:20:58;30.93;;;11.40;;
21677;SDS011;11000;50.360;7.582;2024-01-15T02:23:19;28.23;;;11.77;;
21677;SDS011;11000;50.360;7.582;2024-01-15T02:25:40;27.80;;;11.23;;
21677;SDS011;11000;50.360;7.582;2024-01-15T02:28:02;27.37;;;10.97;;
21677;SDS011;11000;50.360;7.582;2024-01-15T02:30:23;30.97;;;11.20;;
21677;SDS011;11000;50.360;7.582;2024-01-15T02:32:45;30.63;;;10.77;;
21677;SDS011;11000;50.360;7.582;2024-01-15T02:35:06;25.97;;;11.27;;
21677;SDS011;11000;50.360;7.582;2024-01-15T02:37:26;27.77;;;11.40;;
21677;SDS011;11000;50.360;7.582;2024-01-15T02:39:47;24.33;;;11.10;;
21677;SDS011;11000;50.360;7.582;2024-01-15T02:42:07;30.47;;;11.37;;
21677;SDS011;11000;50.360;7.582;2024-01-15T02:44:29;28.33;;;11.40;;
21677;SDS011;11000;50.360;7.582;2024-01-15T02:46:50;32.00;;;9.80;;
21677;SDS011;11000;50.360;7.582;2024-01-15T02:49:10;28.10;;;10.10;;
21677;SDS011;11000;50.360;7.582;2024-01-15T02:51:30;25.07;;;10.33;;
21677;SDS011;11000;50.360;7.582;2024-01-15T02:53:51;25.03;;;10.70;;
21677;SDS011;11000;50.360;7.582;2024-01-15T02:56:12;27.30;;;11.47;;
21677;SDS011;11000;50.360;7.582;2024-01-15T02:58:32;34.50;;;11.53;;
21677;SDS011;11000;50.360;7.582;2024-01-15T03:00:53;24.83;;;10.43;;
21677;SDS011;11000;50.360;7.582;2024-01-15T03:03:13;34.37;;;12.07;;
21677;SDS011;11000;50.360;7.582;2024-01-15T03:05:34;26.60;;;10.97;;
21677;SDS011;11000;50.360;7.582;2024-01-15T03:07:54;29.33;;;11.83;;
21677;SDS011;11000;50.360;7.582;2024-01-15T03:10:15;32.03;;;12.60;;
21677;SDS011;11000;50.360;7.582;2024-01-15T03:12:35;28.27;;;11.77;;
21677;SDS011;11000;50.360;7.582;2024-01-15T03:14:56;33.33;;;12.17;;
21677;SDS011;11000;50.360;7.582;2024-01-15T03:17:16;33.77;;;11.70;;
21677;SDS011;11000;50.360;7.582;2024-01-15T03:19:37;29.30;;;11.73;;
21677;SDS011;11000;50.360;7.582;2024-01-15T03:21:57;33.53;;;12.37;;
21677;SDS011;11000;50.360;7.582;2024-01-15T03:24:18;32.10;;;13.27;;
21677;SDS011;11000;50.360;7.582;2024-01-15T03:26:38;32.10;;;13.30;;
21677;SDS011;11000;50.360;7.582;2024-01-15T03:28:59;30.50;;;11.47;;
21677;SDS011;11000;50.360;7.582;2024-01-15T03:31:19;33.33;;;12.97;;
21677;SDS011;11000;50.360;7.582;2024-01-15T03:33:40;31.77;;;12.37;;
21677;SDS011;11000;50.360;7.582;2024-01-15T03:36:00;34.07;;;11.87;;
21677;SDS011;11000;50.360;7.582;2024-01-15T03:38:22;36.67;;;12.83;;
21677;SDS011;11000;50.360;7.582;2024-01-15T03:40:43;37.40;;;12.97;;
21677;SDS011;11000;50.360;7.582;2024-01-15T03:43:03;33.67;;;12.30;;
21677;SDS011;11000;50.360;7.582;2024-01-15T03:45:24;34.63;;;12.83;;
21677;SDS011;11000;50.360;7.582;2024-01-15T03:47:44;31.40;;;12.90;;
21677;SDS011;11000;50.360;7.582;2024-01-15T03:50:05;35.30;;;13.33;;
21677;SDS011;11000;50.360;7.582;2024-01-15T03:52:26;35.47;;;13.07;;
21677;SDS011;11000;50.360;7.582;2024-01-15T03:54:46;33.87;;;12.53;;
21677;SDS011;11000;50.360;7.582;2024-01-15T03:57:07;30.83;;;12.53;;
21677;SDS011;11000;50.360;7.582;2024-01-15T03:59:27;35.30;;;13.37;;
21677;SDS011;11000;50.360;7.582;2024-01-15T04:01:48;34.67;;;13.17;;
21677;SDS011;11000;50.360;7.582;2024-01-15T04:04:10;35.93;;;13.20;;
21677;SDS011;11000;50.360;7.582;2024-01-15T04:06:31;32.83;;;12.93;;
21677;SDS011;11000;50.360;7.582;2024-01-15T04:08:51;34.40;;;12.57;;
21677;SDS011;11000;50.360;7.582;2024-01-15T04:11:12;33.60;;;11.83;;
21677;SDS011;11000;50.360;7.582;2024-01-15T04:13:32;39.07;;;13.30;;
21677;SDS011;11000;50.360;7.582;2024-01-15T04:15:53;34.77;;;12.80;;
21677;SDS011;11000;50.360;7.582;2024-01-15T04:18:15;40.17;;;14.23;;
21677;SDS011;11000;50.360;7.582;2024-01-15T04:20:36;35.07;;;14.83;;
21677;SDS011;11000;50.360;7.582;2024-01-15T04:22:57;38.43;;;14.30;;
21677;SDS011;11000;50.360;7.582;2024-01-15T04:25:17;31.80;;;13.57;;
21677;SDS011;11000;50.360;7.582;2024-01-15T04:27:38;31.17;;;12.53;;
21677;SDS011;11000;50.360;7.582;2024-01-15T04:29:58;30.27;;;11.93;;
21677;SDS011;11000;50.360;7.582;2024-01-15T04:32:19;35.17;;;13.33;;
21677;SDS011;11000;50.360;7.582;2024-01-15T04:34:39;38.13;;;14.77;;
21677;SDS011;11000;50.360;7.582;2024-01-15T04:37:00;39.77;;;13.03;;
21677;SDS011;11000;50.360;7.582;2024-01-15T04:39:20;36.20;;;14.30;;
21677;SDS011;11000;50.360;7.582;2024-01-15T04:41:42;35.27;;;13.73;;
21677;SDS011;11000;50.360;7.582;2024-01-15T04:44:02;34.20;;;14.50;;
21677;SDS011;11000;50.360;7.582;2024-01-15T04:46:23;37.07;;;13.77;;
21677;SDS011;11000;50.360;7.582;2024-01-15T04:48:43;41.53;;;15.10;;
21677;SDS011;11000;50.360;7.582;2024-01-15T04:51:04;33.23;;;14.27;;
21677;SDS011;11000;50.360;7.582;2024-01-15T04:53:26;41.90;;;14.63;;
21677;SDS011;11000;50.360;7.582;2024-01-15T04:55:46;36.53;;;15.00;;
21677;SDS011;11000;50.360;7.582;2024-01-15T04:58:07;40.40;;;13.63;;
21677;SDS011;11000;50.360;7.582;2024-01-15T05:00:27;33.33;;;13.93;;
21677;SDS011;11000;50.360;7.582;2024-01-15T05:02:48;38.97;;;14.73;;
21677;SDS011;11000;50.360;7.582;2024-01-15T05:05:08;41.20;;;14.53;;
21677;SDS011;11000;50.360;7.582;2024-01-15T05:07:29;41.53;;;15.60;;
21677;SDS011;11000;50.360;7.582;2024-01-15T05:09:49;38.30;;;14.40;;
21677;SDS011;11000;50.360;7.582;2024-01-15T05:12:10;34.63;;;14.33;;
21677;SDS011;11000;50.360;7.582;2024-01-15T05:14:31;33.97;;;13.03;;
21677;SDS011;11000;50.360;7.582;2024-01-15T05:16:51;37.87;;;15.40;;
21677;SDS011;11000;50.360;7.582;2024-01-15T05:19:12;43.47;;;14.43;;
21677;SDS011;11000;50.360;7.582;2024-01-15T05:21:32;41.40;;;14.90;;
21677;SDS011;11000;50.360;7.582;2024-01-15T05:23:53;39.63;;;15.03;;
21677;SDS011;11000;50.360;7.582;2024-01-15T05:26:13;37.87;;;14.63;;
21677;SDS011;11000;50.360;7.582;2024-01-15T05:28:34;38.53;;;15.17;;
21677;SDS011;11000;50.360;7.582;2024-01-15T05:30:55;38.73;;;14.57;;
21677;SDS011;11000;50.360;7.582;2024-01-15T05:33:16;43.03;;;14.80;;
21677;SDS011;11000;50.360;7.582;2024-01-15T05:35:36;38.47;;;13.37;;
21677;SDS011;11000;50.360;7.582;2024-01-15T05:37:57;41.70;;;14.33;;
21677;SDS011;11000;50.360;7.582;2024-01-15T05:40:17;39.07;;;15.30;;
21677;SDS011;11000;50.360;7.582;2024-01-15T05:42:38;39.67;;;15.50;;
21677;SDS011;11000;50.360;7.582;2024-01-15T05:44:59;40.70;;;16.27;;
21677;SDS011;11000;50.360;7.582;2024-01-15T05:47:21;38.43;;;15.00;;
21677;SDS011;11000;50.360;7.582;2024-01-15T05:49:42;39.07;;;14.33;;
21677;SDS011;11000;50.360;7.582;2024-01-15T05:52:03;42.10;;;15.47;;
21677;SDS011;11000;50.360;7.582;2024-01-15T05:54:24;38.93;;;15.23;;
21677;SDS011;11000;50.360;7.582;2024-01-15T05:56:44;44.23;;;15.37;;
21677;SDS011;11000;50.360;7.582;2024-01-15T05:59:05;35.83;;;14.00;;
21677;SDS011;11000;50.360;7.582;2024-01-15T06:01:25;38.53;;;15.20;;
21677;SDS011;11000;50.360;7.582;2024-01-15T06:03:46;36.97;;;15.20;;
21677;SDS011;11000;50.360;7.582;2024-01-15T06:06:06;39.73;;;14.77;;
21677;SDS011;11000;50.360;7.582;2024-01-15T06:08:29;41.90;;;14.93;;
21677;SDS011;11000;50.360;7.582;2024-01-15T06:10:49;44.00;;;16.23;;
21677;SDS011;11000;50.360;7.582;2024-01-15T06:13:10;46.83;;;16.13;;
21677;SDS011;11000;50.360;7.582;2024-01-15T06:15:30;43.67;;;14.83;;
21677;SDS011;11000;50.360;7.582;2024-01-15T06:17:51;40.37;;;15.00;;
21677;SDS011;11000;50.360;7.582;2024-01-15T06:20:11;41.57;;;14.63;;
21677;SDS011;11000;50.360;7.582;2024-01-15T06:22:32;40.67;;;15.43;;
21677;SDS011;11000;50.360;7.582;2024-01-15T06:24:52;39.37;;;15.53;;
21677;SDS011;11000;50.360;7.582;2024-01-15T06:27:13;42.77;;;15.53;;
21677;SDS011;11000;50.360;7.582;2024-01-15T06:29:36;38.40;;;16.00;;
21677;SDS011;11000;50.360;7.582;2024-01-15T06:31:57;43.40;;;15.40;;
21677;SDS011;11000;50.360;7.582;2024-01-15T06:34:18;39.30;;;15.90;;
21677;SDS011;11000;50.360;7.582;2024-01-15T06:36:38;40.10;;;14.53;;
21677;SDS011;11000;50.360;7.582;2024-01-15T06:38:59;39.63;;;15.20;;
21677;SDS011;11000;50.360;7.582;2024-01-15T06:41:19;38.83;;;14.57;;
21677;SDS011;11000;50.360;7.582;2024-01-15T06:43:40;40.40;;;14.97;;
21677;SDS011;11000;50.360;7.582;2024-01-15T06:46:00;36.63;;;15.47;;
21677;SDS011;11000;50.360;7.582;2024-01-15T06:48:21;36.43;;;15.77;;
21677;SDS011;11000;50.360;7.582;2024-01-15T06:50:44;36.17;;;13.63;;
21677;SDS011;11000;50.360;7.582;2024-01-15T06:53:05;37.83;;;14.97;;
21677;SDS011;11000;50.360;7.582;2024-01-15T06:55:25;40.47;;;15.53;;
21677;SDS011;11000;50.360;7.582;2024-01-15T06:57:46;41.30;;;15.33;;
21677;SDS011;11000;50.360;7.582;2024-01-15T07:00:07;36.07;;;15.13;;
21677;SDS011;11000;50.360;7.582;2024-01-15T07:02:28;40.53;;;15.60;;
21677;SDS011;11000;50.360;7.582;2024-01-15T07:04:48;33.80;;;14.27;;
21677;SDS011;11000;50.360;7.582;2024-01-15T07:07:09;39.83;;;15.03;;
21677;SDS011;11000;50.360;7.582;2024-01-15T07:09:29;38.53;;;15.37;;
21677;SDS011;11000;50.360;7.582;2024-01-15T07:11:50;36.80;;;15.70;;
21677;SDS011;11000;50.360;7.582;2024-01-15T07:14:11;38.33;;;15.67;;
21677;SDS011;11000;50.360;7.582;2024-01-15T07:16:32;35.47;;;15.40;;
21677;SDS011;11000;50.360;7.582;2024-01-15T07:18:52;37.47;;;14.83;;
21677;SDS011;11000;50.360;7.582;2024-01-15T07:21:13;35.03;;;15.23;;
21677;SDS011;11000;50.360;7.582;2024-01-15T07:23:33;34.07;;;14.13;;
21677;SDS011;11000;50.360;7.582;2024-01-15T07:25:53;34.70;;;14.83;;
21677;SDS011;11000;50.360;7.582;2024-01-15T07:28:14;34.90;;;14.93;;
21677;SDS011;11000;50.360;7.582;2024-01-15T07:30:34;36.97;;;15.37;;
21677;SDS011;11000;50.360;7.582;2024-01-15T07:32:55;39.33;;;14.20;;
21677;SDS011;11000;50.360;7.582;2024-01-15T07:35:16;40.50;;;14.50;;
21677;SDS011;11000;50.360;7.582;2024-01-15T07:37:36;36.30;;;14.57;;
21677;SDS011;11000;50.360;7.582;2024-01-15T07:39:57;34.50;;;14.80;;
21677;SDS011;11000;50.360;7.582;2024-01-15T07:42:18;39.43;;;15.40;;
21677;SDS011;11000;50.360;7.582;2024-01-15T07:44:38;31.83;;;12.13;;
21677;SDS011;11000;50.360;7.582;2024-01-15T07:46:59;32.07;;;13.63;;
21677;SDS011;11000;50.360;7.582;2024-01-15T07:49:19;35.67;;;13.67;;
21677;SDS011;11000;50.360;7.582;2024-01-15T07:51:40;40.03;;;15.67;;
21677;SDS011;11000;50.360;7.582;2024-01-15T07:54:00;36.60;;;14.97;;
21677;SDS011;11000;50.360;7.582;2024-01-15T07:56:21;36.50;;;15.37;;
21677;SDS011;11000;50.360;7.582;2024-01-15T07:58:42;32.30;;;14.10;;
21677;SDS011;11000;50.360;7.582;2024-01-15T08:01:02;33.97;;;14.57;;
21677;SDS011;11000;50.360;7.582;2024-01-15T08:03:23;33.87;;;15.07;;
21677;SDS011;11000;50.360;7.582;2024-01-15T08:05:43;34.20;;;14.37;;
21677;SDS011;11000;50.360;7.582;2024-01-15T08:08:04;39.53;;;16.10;;
21677;SDS011;11000;50.360;7.582;2024-01-15T08:10:24;36.33;;;15.10;;
21677;SDS011;11000;50.360;7.582;2024-01-15T08:12:45;33.83;;;14.73;;
21677;SDS011;11000;50.360;7.582;2024-01-15T08:15:05;32.33;;;13.70;;
21677;SDS011;11000;50.360;7.582;2024-01-15T08:17:26;32.37;;;13.70;;
21677;SDS011;11000;50.360;7.582;2024-01-15T08:19:48;32.10;;;14.83;;
21677;SDS011;11000;50.360;7.582;2024-01-15T08:22:09;34.97;;;14.50;;
21677;SDS011;11000;50.360;7.582;2024-01-15T08:24:30;36.40;;;15.87;;
21677;SDS011;11000;50.360;7.582;2024-01-15T08:26:51;35.77;;;15.07;;
21677;SDS011;11000;50.360;7.582;2024-01-15T08:29:12;30.77;;;13.47;;
21677;SDS011;11000;50.360;7.582;2024-01-15T08:31:32;29.93;;;14.50;;
21677;SDS011;11000;50.360;7.582;2024-01-15T08:33:53;36.37;;;14.97;;
21677;SDS011;11000;50.360;7.582;2024-01-15T08:36:13;35.63;;;14.53;;
21677;SDS011;11000;50.360;7.582;2024-01-15T08:38:34;28.00;;;13.50;;
21677;SDS011;11000;50.360;7.582;2024-01-15T08:40:54;30.80;;;13.13;;
21677;SDS011;11000;50.360;7.582;2024-01-15T08:43:18;29.93;;;13.10;;
21677;SDS011;11000;50.360;7.582;2024-01-15T08:45:39;28.87;;;13.37;;
21677;SDS011;11000;50.360;7.582;2024-01-15T08:47:59;26.20;;;12.83;;
21677;SDS011;11000;50.360;7.582;2024-01-15T08:50:21;33.77;;;14.13;;
21677;SDS011;11000;50.360;7.582;2024-01-15T08:52:41;27.80;;;13.47;;
21677;SDS011;11000;50.360;7.582;2024-01-15T08:55:02;26.20;;;13.63;;
21677;SDS011;11000;50.360;7.582;2024-01-15T08:57:24;25.20;;;12.03;;
21677;SDS011;11000;50.360;7.582;2024-01-15T08:59:44;27.47;;;13.50;;
21677;SDS011;11000;50.360;7.582;2024-01-15T09:02:05;24.83;;;12.03;;
21677;SDS011;11000;50.360;7.582;2024-01-15T09:04:25;26.00;;;12.50;;
21677;SDS011;11000;50.360;7.582;2024-01-15T09:06:46;27.43;;;12.67;;
21677;SDS011;11000;50.360;7.582;2024-01-15T09:09:07;27.27;;;12.97;;
21677;SDS011;11000;50.360;7.582;2024-01-15T09:11:27;27.07;;;11.60;;
21677;SDS011;11000;50.360;7.582;2024-01-15T09:13:47;27.33;;;12.77;;
21677;SDS011;11000;50.360;7.582;2024-01-15T09:16:08;28.10;;;12.40;;
21677;SDS011;11000;50.360;7.582;2024-01-15T09:18:28;26.30;;;12.23;;
21677;SDS011;11000;50.360;7.582;2024-01-15T09:20:49;24.30;;;11.20;;
21677;SDS011;11000;50.360;7.582;2024-01-15T09:23:10;25.37;;;11.60;;
21677;SDS011;11000;50.360;7.582;2024-01-15T09:25:30;23.00;;;11.50;;
21677;SDS011;11000;50.360;7.582;2024-01-15T09:27:51;22.23;;;10.33;;
21677;SDS011;11000;50.360;7.582;2024-01-15T09:30:11;22.47;;;10.90;;
21677;SDS011;11000;50.360;7.582;2024-01-15T09:32:32;20.50;;;10.63;;
21677;SDS011;11000;50.360;7.582;2024-01-15T09:34:53;18.73;;;10.70;;
21677;SDS011;11000;50.360;7.582;2024-01-15T09:37:13;19.33;;;10.43;;
21677;SDS011;11000;50.360;7.582;2024-01-15T09:39:34;21.97;;;10.83;;
21677;SDS011;11000;50.360;7.582;2024-01-15T09:41:55;20.70;;;10.50;;
21677;SDS011;11000;50.360;7.582;2024-01-15T09:44:16;20.43;;;11.17;;
21677;SDS011;11000;50.360;7.582;2024-01-15T09:46:37;19.90;;;10.13;;
21677;SDS011;11000;50.360;7.582;2024-01-15T09:48:59;20.27;;;10.17;;
21677;SDS011;11000;50.360;7.582;2024-01-15T09:51:19;18.07;;;9.90;;
21677;SDS011;11000;50.360;7.582;2024-01-15T09:53:40;19.83;;;10.17;;
21677;SDS011;11000;50.360;7.582;2024-01-15T09:56:02;19.07;;;10.53;;
21677;SDS011;11000;50.360;7.582;2024-01-15T09:58:23;18.37;;;10.57;;
21677;SDS011;11000;50.360;7.582;2024-01-15T10:00:44;21.37;;;10.00;;
21677;SDS011;11000;50.360;7.582;2024-01-15T10:03:07;20.83;;;10.40;;
21677;SDS011;11000;50.360;7.582;2024-01-15T10:05:28;18.33;;;10.20;;
21677;SDS011;11000;50.360;7.582;2024-01-15T10:07:48;20.10;;;10.57;;
21677;SDS011;11000;50.360;7.582;2024-01-15T10:10:11;20.83;;;11.23;;
21677;SDS011;11000;50.360;7.582;2024-01-15T10:12:31;19.80;;;11.00;;
21677;SDS011;11000;50.360;7.582;2024-01-15T10:14:52;19.53;;;10.57;;
21677;SDS011;11000;50.360;7.582;2024-01-15T10:17:13;18.60;;;9.83;;
21677;SDS011;11000;50.360;7.582;2024-01-15T10:19:35;21.37;;;10.47;;
21677;SDS011;11000;50.360;7.582;2024-01-15T10:21:55;21.23;;;10.93;;
21677;SDS011;11000;50.360;7.582;2024-01-15T10:24:16;20.57;;;10.97;;
21677;SDS011;11000;50.360;7.582;2024-01-15T10:26:37;23.83;;;10.70;;
21677;SDS011;11000;50.360;7.582;2024-01-15T10:29:00;18.97;;;9.90;;
21677;SDS011;11000;50.360;7.582;2024-01-15T10:31:21;22.37;;;11.47;;
21677;SDS011;11000;50.360;7.582;2024-01-15T10:33:42;21.40;;;11.10;;
21677;SDS011;11000;50.360;7.582;2024-01-15T10:36:02;18.13;;;9.67;;
21677;SDS011;11000;50.360;7.582;2024-01-15T10:38:29;19.73;;;10.77;;
21677;SDS011;11000;50.360;7.582;2024-01-15T10:40:53;21.97;;;10.87;;
21677;SDS011;11000;50.360;7.582;2024-01-15T10:43:14;19.37;;;10.40;;
21677;SDS011;11000;50.360;7.582;2024-01-15T10:45:34;19.93;;;10.60;;
21677;SDS011;11000;50.360;7.582;2024-01-15T10:47:55;22.03;;;11.30;;
21677;SDS011;11000;50.360;7.582;2024-01-15T10:50:18;21.47;;;10.70;;
21677;SDS011;11000;50.360;7.582;2024-01-15T10:52:40;21.80;;;10.73;;
21677;SDS011;11000;50.360;7.582;2024-01-15T10:55:03;22.57;;;10.90;;
21677;SDS011;11000;50.360;7.582;2024-01-15T10:57:24;21.20;;;10.60;;
21677;SDS011;11000;50.360;7.582;2024-01-15T10:59:47;22.50;;;11.07;;
21677;SDS011;11000;50.360;7.582;2024-01-15T11:02:08;18.80;;;11.03;;
21677;SDS011;11000;50.360;7.582;2024-01-15T11:04:31;18.33;;;10.07;;
21677;SDS011;11000;50.360;7.582;2024-01-15T11:06:53;20.70;;;10.83;;
21677;SDS011;11000;50.360;7.582;2024-01-15T11:09:14;24.23;;;10.90;;
21677;SDS011;11000;50.360;7.582;2024-01-15T11:11:35;20.50;;;10.63;;
21677;SDS011;11000;50.360;7.582;2024-01-15T11:14:00;20.87;;;10.63;;
21677;SDS011;11000;50.360;7.582;2024-01-15T11:16:20;23.40;;;10.77;;
21677;SDS011;11000;50.360;7.582;2024-01-15T11:23:43;21.30;;;11.27;;
21677;SDS011;11000;50.360;7.582;2024-01-15T11:28:58;23.77;;;10.87;;
21677;SDS011;11000;50.360;7.582;2024-01-15T11:31:25;18.37;;;11.03;;
21677;SDS011;11000;50.360;7.582;2024-01-15T11:33:50;21.20;;;11.13;;
21677;SDS011;11000;50.360;7.582;2024-01-15T11:36:11;20.37;;;11.00;;
21677;SDS011;11000;50.360;7.582;2024-01-15T11:38:31;20.37;;;11.00;;
21677;SDS011;11000;50.360;7.582;2024-01-15T11:40:51;18.80;;;10.67;;
21677;SDS011;11000;50.360;7.582;2024-01-15T11:43:12;18.73;;;10.40;;
21677;SDS011;11000;50.360;7.582;2024-01-15T11:45:33;20.63;;;10.83;;
21677;SDS011;11000;50.360;7.582;2024-01-15T11:50:34;21.00;;;10.83;;
21677;SDS011;11000;50.360;7.582;2024-01-15T11:52:57;19.70;;;10.77;;
21677;SDS011;11000;50.360;7.582;2024-01-15T11:55:26;20.50;;;10.20;;
21677;SDS011;11000;50.360;7.582;2024-01-15T11:57:50;22.63;;;10.70;;
21677;SDS011;11000;50.360;7.582;2024-01-15T12:00:11;20.23;;;10.83;;
21677;SDS011;11000;50.360;7.582;2024-01-15T12:02:34;19.67;;;10.33;;
21677;SDS011;11000;50.360;7.582;2024-01-15T12:04:54;17.80;;;9.57;;
21677;SDS011;11000;50.360;7.582;2024-01-15T12:07:16;17.70;;;9.67;;
21677;SDS011;11000;50.360;7.582;2024-01-15T12:09:42;16.27;;;9.70;;
21677;SDS011;11000;50.360;7.582;2024-01-15T12:12:07;15.60;;;8.40;;
21677;SDS011;11000;50.360;7.582;2024-01-15T12:14:33;15.03;;;8.40;;
21677;SDS011;11000;50.360;7.582;2024-01-15T12:16:54;17.33;;;9.50;;
21677;SDS011;11000;50.360;7.582;2024-01-15T12:19:15;15.83;;;8.77;;
21677;SDS011;11000;50.360;7.582;2024-01-15T12:21:38;19.83;;;9.37;;
21677;SDS011;11000;50.360;7.582;2024-01-15T12:23:59;17.07;;;9.30;;
21677;SDS011;11000;50.360;7.582;2024-01-15T12:26:19;19.27;;;9.73;;
21677;SDS011;11000;50.360;7.582;2024-01-15T12:28:40;17.73;;;9.10;;
21677;SDS011;11000;50.360;7.582;2024-01-15T12:31:00;18.83;;;9.50;;
21677;SDS011;11000;50.360;7.582;2024-01-15T12:33:25;16.50;;;8.80;;
21677;SDS011;11000;50.360;7.582;2024-01-15T12:35:45;16.63;;;9.17;;
21677;SDS011;11000;50.360;7.582;2024-01-15T12:38:06;17.87;;;9.83;;
21677;SDS011;11000;50.360;7.582;2024-01-15T12:40:26;18.27;;;9.47;;
21677;SDS011;11000;50.360;7.582;2024-01-15T12:42:47;18.07;;;10.00;;
21677;SDS011;11000;50.360;7.582;2024-01-15T12:45:08;20.40;;;9.77;;
21677;SDS011;11000;50.360;7.582;2024-01-15T12:47:30;17.13;;;9.57;;
21677;SDS011;11000;50.360;7.582;2024-01-15T12:49:54;15.40;;;8.80;;
21677;SDS011;11000;50.360;7.582;2024-01-15T12:52:15;16.60;;;9.43;;
21677;SDS011;11000;50.360;7.582;2024-01-15T12:54:35;12.60;;;7.37;;
21677;SDS011;11000;50.360;7.582;2024-01-15T12:56:56;13.93;;;7.83;;
21677;SDS011;11000;50.360;7.582;2024-01-15T12:59:17;14.13;;;7.47;;
21677;SDS011;11000;50.360;7.582;2024-01-15T13:01:38;12.70;;;6.70;;
21677;SDS011;11000;50.360;7.582;2024-01-15T13:03:59;13.07;;;7.23;;
21677;SDS011;11000;50.360;7.582;2024-01-15T13:06:20;11.97;;;6.43;;
21677;SDS011;11000;50.360;7.582;2024-01-15T13:08:41;13.13;;;5.77;;
21677;SDS011;11000;50.360;7.582;2024-01-15T13:11:01;11.87;;;6.23;;
21677;SDS011;11000;50.360;7.582;2024-01-15T13:13:23;13.57;;;6.37;;
21677;SDS011;11000;50.360;7.582;2024-01-15T13:15:43;10.40;;;5.00;;
21677;SDS011;11000;50.360;7.582;2024-01-15T13:18:04;7.10;;;4.73;;
21677;SDS011;11000;50.360;7.582;2024-01-15T13:20:25;7.57;;;3.90;;
21677;SDS011;11000;50.360;7.582;2024-01-15T13:22:45;9.90;;;3.77;;
21677;SDS011;11000;50.360;7.582;2024-01-15T13:25:06;8.83;;;3.40;;
21677;SDS011;11000;50.360;7.582;2024-01-15T13:27:27;4.67;;;2.60;;
21677;SDS011;11000;50.360;7.582;2024-01-15T13:29:48;3.97;;;2.50;;
21677;SDS011;11000;50.360;7.582;2024-01-15T13:32:08;8.07;;;2.47;;
21677;SDS011;11000;50.360;7.582;2024-01-15T13:34:31;5.00;;;2.50;;
21677;SDS011;11000;50.360;7.582;2024-01-15T13:36:52;4.57;;;2.30;;
21677;SDS011;11000;50.360;7.582;2024-01-15T13:39:13;5.10;;;2.23;;
21677;SDS011;11000;50.360;7.582;2024-01-15T13:41:34;8.43;;;3.10;;
21677;SDS011;11000;50.360;7.582;2024-01-15T13:43:55;10.17;;;2.70;;
21677;SDS011;11000;50.360;7.582;2024-01-15T13:46:16;6.83;;;2.07;;
21677;SDS011;11000;50.360;7.582;2024-01-15T13:48:37;4.77;;;1.97;;
21677;SDS011;11000;50.360;7.582;2024-01-15T13:50:58;3.97;;;1.53;;
21677;SDS011;11000;50.360;7.582;2024-01-15T13:53:19;5.70;;;2.00;;
21677;SDS011;11000;50.360;7.582;2024-01-15T13:55:39;4.50;;;1.70;;